< < Back
Terminal Aerodrome Forecast


Current Version              Previous Versions:   1  2  3  4  5  6  7  8  9  

Terminal Aerodrome Forecast

143
FTUS44 KOHX 130504 AAA
TAFBNA
TAF AMD
KBNA 130504Z 1305/1324 36010KT P6SM FEW040
     FM131200 36008KT P6SM BKN250=

Latest METAR

971
SAUS70 KWBC 130700 RRB
MTRBNA
METAR KBNA 130653Z 33009G17KT 10SM FEW040 M03/M11 A3042 RMK AO2 SLP304
T10331111


USA.gov is the U.S. government's official web portal to all federal, state and local government web resources and services.